NOZ1326 ENZV-EGCC
Flight info
| Callsign | NOZ1326 |
|---|---|
| Flight time | 1h 20m |
| Altitude | 38000 |
| Route | RUMOG DCT NIVUN DCT LAMRO DCT CUTEL DCT SUSIS DCT ROBEM DCT NATEB/N0343F250 P18 TILNI |
| Aircraft | B738/M-SDE2E3GHIJ1LRWXY/LB1 |
Departure
| Time | 2026-04-20 18:47 |
|---|---|
| Airport | Stavanger Airport, Sola (ENZV) |
Arrival
| Time | 2026-04-20 20:07 |
|---|---|
| Airport | Manchester Airport (EGCC) |
| Time | Latitude | Longitude | Altitude | Speed | Heading |
|---|---|---|---|---|---|
| 2026-04-20 17:42 | 58.88074 | 5.62679 | 24 ft | 0 kts | 15° |
| 2026-04-20 18:36 | 58.88072 | 5.62678 | 27 ft | 3 kts | 15° |
| 2026-04-20 18:36 | 58.88046 | 5.62664 | 29 ft | 4 kts | 15° |
| 2026-04-20 18:36 | 58.88024 | 5.62652 | 24 ft | 1 kts | 15° |
| 2026-04-20 18:41 | 58.88025 | 5.62656 | 24 ft | 1 kts | 43° |
| 2026-04-20 18:42 | 58.88021 | 5.62691 | 24 ft | 6 kts | 123° |
| 2026-04-20 18:42 | 58.87995 | 5.62783 | 26 ft | 10 kts | 108° |
| 2026-04-20 18:42 | 58.87991 | 5.62946 | 26 ft | 13 kts | 78° |
| 2026-04-20 18:42 | 58.87979 | 5.63106 | 26 ft | 12 kts | 105° |
| 2026-04-20 18:43 | 58.87956 | 5.63258 | 28 ft | 12 kts | 107° |
| 2026-04-20 18:43 | 58.87913 | 5.63339 | 30 ft | 9 kts | 187° |
| 2026-04-20 18:43 | 58.87852 | 5.63297 | 29 ft | 9 kts | 199° |
| 2026-04-20 18:43 | 58.87784 | 5.63291 | 28 ft | 11 kts | 179° |
| 2026-04-20 18:44 | 58.87693 | 5.63295 | 31 ft | 16 kts | 178° |
| 2026-04-20 18:44 | 58.87560 | 5.63298 | 30 ft | 23 kts | 178° |
| 2026-04-20 18:44 | 58.87383 | 5.63304 | 31 ft | 27 kts | 179° |
| 2026-04-20 18:44 | 58.87204 | 5.63310 | 31 ft | 24 kts | 179° |
| 2026-04-20 18:45 | 58.87072 | 5.63314 | 32 ft | 15 kts | 179° |
| 2026-04-20 18:45 | 58.86982 | 5.63397 | 30 ft | 15 kts | 143° |
| 2026-04-20 18:45 | 58.86950 | 5.63571 | 34 ft | 14 kts | 89° |
| 2026-04-20 18:45 | 58.86952 | 5.63750 | 36 ft | 11 kts | 89° |
| 2026-04-20 18:46 | 58.86997 | 5.63807 | 33 ft | 12 kts | 356° |
| 2026-04-20 18:46 | 58.87207 | 5.63797 | 33 ft | 65 kts | 359° |
| 2026-04-20 18:46 | 58.87921 | 5.63778 | 32 ft | 137 kts | 360° |
| 2026-04-20 18:46 | 58.88947 | 5.63685 | 551 ft | 150 kts | 1° |
| 2026-04-20 18:47 | 58.90018 | 5.63673 | 1266 ft | 160 kts | 1° |
| 2026-04-20 18:47 | 58.91241 | 5.63686 | 1648 ft | 192 kts | 1° |
| 2026-04-20 18:47 | 58.92666 | 5.63651 | 1916 ft | 219 kts | 1° |
| 2026-04-20 18:47 | 58.94241 | 5.63649 | 2359 ft | 234 kts | 1° |
| 2026-04-20 18:48 | 58.95952 | 5.63606 | 2800 ft | 254 kts | 0° |
| 2026-04-20 18:48 | 58.97741 | 5.63488 | 3645 ft | 260 kts | 0° |
| 2026-04-20 18:48 | 58.99528 | 5.62873 | 4529 ft | 267 kts | 335° |
| 2026-04-20 18:48 | 59.00888 | 5.60440 | 5427 ft | 273 kts | 300° |
| 2026-04-20 18:49 | 59.01395 | 5.56902 | 6284 ft | 277 kts | 271° |
| 2026-04-20 18:49 | 59.01053 | 5.53237 | 7260 ft | 280 kts | 245° |
| 2026-04-20 18:49 | 58.99948 | 5.50154 | 8276 ft | 281 kts | 218° |
| 2026-04-20 18:49 | 58.98236 | 5.48450 | 9380 ft | 277 kts | 188° |
| 2026-04-20 18:50 | 58.96325 | 5.48250 | 10534 ft | 276 kts | 176° |
| 2026-04-20 18:50 | 58.94356 | 5.48357 | 11211 ft | 295 kts | 175° |
| 2026-04-20 18:50 | 58.92235 | 5.48533 | 11764 ft | 313 kts | 175° |
| 2026-04-20 18:50 | 58.90025 | 5.48731 | 12601 ft | 323 kts | 173° |
| 2026-04-20 18:51 | 58.87729 | 5.49085 | 13305 ft | 336 kts | 173° |
| 2026-04-20 18:51 | 58.85371 | 5.49452 | 14210 ft | 342 kts | 173° |
| 2026-04-20 18:51 | 58.83012 | 5.49751 | 15070 ft | 347 kts | 174° |
| 2026-04-20 18:51 | 58.80580 | 5.49989 | 15880 ft | 353 kts | 175° |
| 2026-04-20 18:52 | 58.78098 | 5.50175 | 16666 ft | 360 kts | 175° |
| 2026-04-20 18:52 | 58.75537 | 5.50328 | 17481 ft | 366 kts | 176° |
| 2026-04-20 18:52 | 58.73007 | 5.50456 | 18268 ft | 372 kts | 176° |
| 2026-04-20 18:52 | 58.70392 | 5.50575 | 19009 ft | 379 kts | 176° |
| 2026-04-20 18:53 | 58.67741 | 5.50689 | 19726 ft | 383 kts | 176° |
| 2026-04-20 18:53 | 58.65062 | 5.50800 | 20460 ft | 387 kts | 175° |
| 2026-04-20 18:53 | 58.62354 | 5.50910 | 21185 ft | 392 kts | 175° |
| 2026-04-20 18:53 | 58.59613 | 5.51022 | 21891 ft | 396 kts | 175° |
| 2026-04-20 18:54 | 58.56844 | 5.51136 | 22567 ft | 401 kts | 175° |
| 2026-04-20 18:54 | 58.54048 | 5.51252 | 23227 ft | 405 kts | 175° |
| 2026-04-20 18:54 | 58.51208 | 5.51369 | 23889 ft | 410 kts | 175° |
| 2026-04-20 18:54 | 58.48340 | 5.51487 | 24463 ft | 414 kts | 175° |
| 2026-04-20 18:55 | 58.45454 | 5.51604 | 25055 ft | 416 kts | 175° |
| 2026-04-20 18:55 | 58.42557 | 5.51721 | 25665 ft | 418 kts | 175° |
| 2026-04-20 18:55 | 58.39637 | 5.51839 | 26241 ft | 420 kts | 175° |
| 2026-04-20 18:55 | 58.36704 | 5.51958 | 26798 ft | 423 kts | 175° |
| 2026-04-20 18:56 | 58.33755 | 5.52079 | 27345 ft | 426 kts | 175° |
| 2026-04-20 18:56 | 58.30780 | 5.52200 | 27863 ft | 429 kts | 175° |
| 2026-04-20 18:56 | 58.27788 | 5.52321 | 28350 ft | 432 kts | 175° |
| 2026-04-20 18:56 | 58.24777 | 5.52398 | 28830 ft | 436 kts | 179° |
| 2026-04-20 18:57 | 58.21779 | 5.51225 | 29254 ft | 448 kts | 200° |
| 2026-04-20 18:57 | 58.19085 | 5.48224 | 29777 ft | 454 kts | 218° |
| 2026-04-20 18:57 | 58.16890 | 5.43883 | 30279 ft | 458 kts | 228° |
| 2026-04-20 18:57 | 58.14831 | 5.39245 | 30675 ft | 461 kts | 229° |
| 2026-04-20 18:58 | 58.12778 | 5.34555 | 30996 ft | 464 kts | 229° |
| 2026-04-20 18:58 | 58.10710 | 5.29845 | 31330 ft | 467 kts | 228° |
| 2026-04-20 18:58 | 58.08619 | 5.25130 | 31697 ft | 468 kts | 228° |
| 2026-04-20 18:58 | 58.06512 | 5.20429 | 31968 ft | 472 kts | 227° |
| 2026-04-20 18:59 | 58.04407 | 5.15772 | 32336 ft | 472 kts | 227° |
| 2026-04-20 18:59 | 58.02273 | 5.11077 | 32852 ft | 470 kts | 227° |
| 2026-04-20 18:59 | 58.00154 | 5.06429 | 33411 ft | 466 kts | 227° |
| 2026-04-20 18:59 | 57.98045 | 5.01815 | 33945 ft | 463 kts | 227° |
| 2026-04-20 19:00 | 57.95942 | 4.97224 | 34397 ft | 462 kts | 227° |
| 2026-04-20 19:00 | 57.93841 | 4.92642 | 34745 ft | 462 kts | 227° |
| 2026-04-20 19:00 | 57.91740 | 4.88071 | 35030 ft | 463 kts | 227° |
| 2026-04-20 19:00 | 57.89623 | 4.83474 | 35296 ft | 465 kts | 227° |
| 2026-04-20 19:01 | 57.87506 | 4.78886 | 35590 ft | 465 kts | 227° |
| 2026-04-20 19:01 | 57.85390 | 4.74306 | 35875 ft | 465 kts | 227° |
| 2026-04-20 19:01 | 57.83261 | 4.69706 | 36165 ft | 467 kts | 227° |
| 2026-04-20 19:01 | 57.81131 | 4.65113 | 36458 ft | 467 kts | 227° |
| 2026-04-20 19:02 | 57.79000 | 4.60527 | 36732 ft | 468 kts | 227° |
| 2026-04-20 19:02 | 57.76855 | 4.55924 | 37010 ft | 468 kts | 227° |
| 2026-04-20 19:02 | 57.74712 | 4.51330 | 37305 ft | 469 kts | 227° |
| 2026-04-20 19:02 | 57.72564 | 4.46737 | 37590 ft | 469 kts | 227° |
| 2026-04-20 19:03 | 57.70412 | 4.42141 | 37848 ft | 470 kts | 227° |
| 2026-04-20 19:03 | 57.68251 | 4.37539 | 38126 ft | 471 kts | 227° |
| 2026-04-20 19:03 | 57.66091 | 4.32946 | 38424 ft | 471 kts | 227° |
| 2026-04-20 19:03 | 57.63928 | 4.28353 | 38676 ft | 471 kts | 227° |
| 2026-04-20 19:04 | 57.62493 | 4.25308 | 38820 ft | 472 kts | 227° |
| 2026-04-20 19:04 | 57.60320 | 4.20709 | 39075 ft | 473 kts | 227° |
| 2026-04-20 19:04 | 57.58118 | 4.16162 | 39285 ft | 472 kts | 224° |
| 2026-04-20 19:04 | 57.55647 | 4.12137 | 39432 ft | 473 kts | 215° |
| 2026-04-20 19:05 | 57.52876 | 4.08875 | 39639 ft | 471 kts | 209° |
| 2026-04-20 19:05 | 57.50039 | 4.05826 | 39836 ft | 471 kts | 208° |
| 2026-04-20 19:05 | 57.47187 | 4.02791 | 40038 ft | 471 kts | 208° |
| 2026-04-20 19:05 | 57.44352 | 3.99761 | 40265 ft | 471 kts | 209° |
| 2026-04-20 19:06 | 57.41513 | 3.96704 | 40411 ft | 471 kts | 209° |
| 2026-04-20 19:06 | 57.38686 | 3.93640 | 40456 ft | 471 kts | 209° |
| 2026-04-20 19:06 | 57.33031 | 3.87481 | 40465 ft | 473 kts | 209° |
| 2026-04-20 19:07 | 57.27349 | 3.81315 | 40457 ft | 475 kts | 209° |
| 2026-04-20 19:07 | 57.21640 | 3.75147 | 40469 ft | 476 kts | 209° |
| 2026-04-20 19:08 | 57.13054 | 3.65907 | 40458 ft | 477 kts | 209° |
| 2026-04-20 19:09 | 57.07314 | 3.59758 | 40447 ft | 477 kts | 209° |
| 2026-04-20 19:09 | 57.01586 | 3.53646 | 40453 ft | 476 kts | 209° |
| 2026-04-20 19:10 | 56.95861 | 3.47565 | 40443 ft | 475 kts | 209° |
| 2026-04-20 19:10 | 56.90145 | 3.41522 | 40442 ft | 474 kts | 209° |
| 2026-04-20 19:11 | 56.84434 | 3.35496 | 40438 ft | 474 kts | 209° |
| 2026-04-20 19:11 | 56.78731 | 3.29497 | 40422 ft | 473 kts | 209° |
| 2026-04-20 19:12 | 56.73067 | 3.23561 | 40430 ft | 472 kts | 209° |
| 2026-04-20 19:12 | 56.67367 | 3.17612 | 40421 ft | 472 kts | 209° |
| 2026-04-20 19:13 | 56.61663 | 3.11679 | 40413 ft | 473 kts | 209° |
| 2026-04-20 19:13 | 56.55959 | 3.05767 | 40415 ft | 472 kts | 208° |
| 2026-04-20 19:14 | 56.50257 | 2.99871 | 40427 ft | 472 kts | 209° |
| 2026-04-20 19:14 | 56.44547 | 2.93994 | 40418 ft | 472 kts | 209° |
| 2026-04-20 19:15 | 56.38838 | 2.88138 | 40413 ft | 472 kts | 208° |
| 2026-04-20 19:15 | 56.33121 | 2.82294 | 40415 ft | 473 kts | 209° |
| 2026-04-20 19:16 | 56.27388 | 2.76457 | 40422 ft | 473 kts | 209° |
| 2026-04-20 19:16 | 56.21653 | 2.70634 | 40417 ft | 474 kts | 209° |
| 2026-04-20 19:17 | 56.15916 | 2.64830 | 40414 ft | 473 kts | 209° |
| 2026-04-20 19:17 | 56.10178 | 2.59041 | 40418 ft | 473 kts | 209° |
| 2026-04-20 19:18 | 56.04441 | 2.53275 | 40415 ft | 473 kts | 208° |
| 2026-04-20 19:18 | 55.98703 | 2.47529 | 40405 ft | 472 kts | 208° |
| 2026-04-20 19:19 | 55.92989 | 2.41808 | 40416 ft | 471 kts | 211° |
| 2026-04-20 19:19 | 55.90453 | 2.38131 | 40404 ft | 471 kts | 230° |
| 2026-04-20 19:19 | 55.88630 | 2.33307 | 40414 ft | 470 kts | 244° |
| 2026-04-20 19:19 | 55.87549 | 2.27848 | 40417 ft | 468 kts | 259° |
| 2026-04-20 19:20 | 55.86977 | 2.22157 | 40410 ft | 468 kts | 262° |
| 2026-04-20 19:20 | 55.85993 | 2.10704 | 40405 ft | 468 kts | 262° |
| 2026-04-20 19:21 | 55.84994 | 1.99240 | 40409 ft | 469 kts | 262° |
| 2026-04-20 19:21 | 55.83938 | 1.87850 | 40399 ft | 470 kts | 261° |
| 2026-04-20 19:22 | 55.82836 | 1.76383 | 40419 ft | 471 kts | 261° |
| 2026-04-20 19:22 | 55.81718 | 1.64897 | 40396 ft | 472 kts | 261° |
| 2026-04-20 19:23 | 55.80590 | 1.53410 | 40419 ft | 472 kts | 261° |
| 2026-04-20 19:23 | 55.79451 | 1.41918 | 40414 ft | 473 kts | 261° |
| 2026-04-20 19:24 | 55.78301 | 1.30408 | 40410 ft | 473 kts | 261° |
| 2026-04-20 19:24 | 55.77137 | 1.18911 | 40416 ft | 472 kts | 261° |
| 2026-04-20 19:25 | 55.75968 | 1.07455 | 40398 ft | 471 kts | 261° |
| 2026-04-20 19:25 | 55.74792 | 0.96046 | 40403 ft | 469 kts | 260° |
| 2026-04-20 19:26 | 55.73610 | 0.84678 | 40401 ft | 468 kts | 260° |
| 2026-04-20 19:26 | 55.72418 | 0.73320 | 40399 ft | 467 kts | 261° |
| 2026-04-20 19:27 | 55.71219 | 0.62012 | 40409 ft | 466 kts | 260° |
| 2026-04-20 19:27 | 55.70011 | 0.50727 | 40400 ft | 466 kts | 260° |
| 2026-04-20 19:28 | 55.68790 | 0.39396 | 40404 ft | 464 kts | 260° |
| 2026-04-20 19:28 | 55.67573 | 0.28222 | 40406 ft | 465 kts | 260° |
| 2026-04-20 19:29 | 55.66336 | 0.16982 | 40402 ft | 466 kts | 260° |
| 2026-04-20 19:29 | 55.65087 | 0.05731 | 40412 ft | 466 kts | 259° |
| 2026-04-20 19:30 | 55.63828 | -0.05534 | 40400 ft | 467 kts | 259° |
| 2026-04-20 19:30 | 55.62547 | -0.16890 | 40405 ft | 467 kts | 259° |
| 2026-04-20 19:31 | 55.61274 | -0.28088 | 40405 ft | 468 kts | 259° |
| 2026-04-20 19:31 | 55.59721 | -0.39269 | 40388 ft | 469 kts | 251° |
| 2026-04-20 19:32 | 55.57366 | -0.50021 | 40402 ft | 470 kts | 249° |
| 2026-04-20 19:32 | 55.54957 | -0.60761 | 40388 ft | 470 kts | 249° |
| 2026-04-20 19:33 | 55.52607 | -0.71499 | 40392 ft | 469 kts | 250° |
| 2026-04-20 19:33 | 55.50269 | -0.82260 | 40403 ft | 469 kts | 250° |
| 2026-04-20 19:34 | 55.47921 | -0.92995 | 40404 ft | 469 kts | 250° |
| 2026-04-20 19:34 | 55.44896 | -1.03133 | 40409 ft | 470 kts | 234° |
| 2026-04-20 19:35 | 55.40369 | -1.11413 | 40409 ft | 470 kts | 223° |
| 2026-04-20 19:35 | 55.35510 | -1.19106 | 40403 ft | 470 kts | 223° |
| 2026-04-20 19:36 | 55.30674 | -1.26827 | 40401 ft | 469 kts | 223° |
| 2026-04-20 19:36 | 55.25868 | -1.34575 | 40394 ft | 469 kts | 223° |
| 2026-04-20 19:37 | 55.21076 | -1.42300 | 40390 ft | 468 kts | 223° |
| 2026-04-20 19:37 | 55.16278 | -1.50007 | 40036 ft | 473 kts | 223° |
| 2026-04-20 19:37 | 55.13845 | -1.53902 | 39499 ft | 473 kts | 223° |
| 2026-04-20 19:38 | 55.11426 | -1.57769 | 38872 ft | 472 kts | 223° |
| 2026-04-20 19:38 | 55.09001 | -1.61639 | 38117 ft | 471 kts | 223° |
| 2026-04-20 19:38 | 55.06542 | -1.65405 | 37430 ft | 470 kts | 218° |
| 2026-04-20 19:38 | 55.03787 | -1.68458 | 36795 ft | 469 kts | 207° |
| 2026-04-20 19:39 | 55.00790 | -1.70698 | 36118 ft | 469 kts | 199° |
| 2026-04-20 19:39 | 54.97627 | -1.72083 | 35377 ft | 470 kts | 191° |
| 2026-04-20 19:39 | 54.94400 | -1.73067 | 34588 ft | 472 kts | 190° |
| 2026-04-20 19:39 | 54.91154 | -1.74018 | 33682 ft | 474 kts | 190° |
| 2026-04-20 19:40 | 54.87948 | -1.74977 | 32824 ft | 473 kts | 190° |
| 2026-04-20 19:40 | 54.84679 | -1.75988 | 32196 ft | 467 kts | 190° |
| 2026-04-20 19:40 | 54.81500 | -1.76996 | 31587 ft | 461 kts | 191° |
| 2026-04-20 19:40 | 54.78408 | -1.77988 | 31015 ft | 455 kts | 190° |
| 2026-04-20 19:41 | 54.75273 | -1.78995 | 30439 ft | 450 kts | 190° |
| 2026-04-20 19:41 | 54.72252 | -1.79960 | 29755 ft | 444 kts | 191° |
| 2026-04-20 19:41 | 54.69243 | -1.80917 | 29173 ft | 436 kts | 191° |
| 2026-04-20 19:41 | 54.66280 | -1.81855 | 28590 ft | 429 kts | 191° |
| 2026-04-20 19:42 | 54.63365 | -1.82778 | 28022 ft | 423 kts | 191° |
| 2026-04-20 19:42 | 54.60489 | -1.83689 | 27444 ft | 417 kts | 191° |
| 2026-04-20 19:42 | 54.57654 | -1.84584 | 26890 ft | 412 kts | 191° |
| 2026-04-20 19:42 | 54.54843 | -1.85470 | 26326 ft | 408 kts | 190° |
| 2026-04-20 19:43 | 54.52067 | -1.86344 | 25806 ft | 405 kts | 190° |
| 2026-04-20 19:43 | 54.49306 | -1.87212 | 25299 ft | 400 kts | 190° |
| 2026-04-20 19:43 | 54.46575 | -1.88069 | 24811 ft | 400 kts | 191° |
| 2026-04-20 19:43 | 54.43834 | -1.88928 | 24310 ft | 402 kts | 191° |
| 2026-04-20 19:44 | 54.41074 | -1.89792 | 23784 ft | 404 kts | 191° |
| 2026-04-20 19:44 | 54.38316 | -1.90656 | 23172 ft | 400 kts | 191° |
| 2026-04-20 19:44 | 54.35593 | -1.91508 | 22660 ft | 395 kts | 190° |
| 2026-04-20 19:44 | 54.32906 | -1.92347 | 22155 ft | 391 kts | 190° |
| 2026-04-20 19:45 | 54.30239 | -1.93178 | 21654 ft | 387 kts | 190° |
| 2026-04-20 19:45 | 54.27596 | -1.94001 | 21149 ft | 385 kts | 189° |
| 2026-04-20 19:45 | 54.24985 | -1.94894 | 20655 ft | 382 kts | 195° |
| 2026-04-20 19:45 | 54.22590 | -1.96804 | 20184 ft | 380 kts | 214° |
| 2026-04-20 19:46 | 54.20641 | -1.99815 | 19699 ft | 377 kts | 232° |
| 2026-04-20 19:46 | 54.19136 | -2.03462 | 19242 ft | 375 kts | 236° |
| 2026-04-20 19:46 | 54.17684 | -2.07150 | 18760 ft | 374 kts | 236° |
| 2026-04-20 19:46 | 54.16216 | -2.10797 | 18235 ft | 372 kts | 235° |
| 2026-04-20 19:47 | 54.14715 | -2.14389 | 17723 ft | 370 kts | 233° |
| 2026-04-20 19:47 | 54.13144 | -2.17848 | 17245 ft | 368 kts | 231° |
| 2026-04-20 19:47 | 54.11553 | -2.21255 | 16752 ft | 366 kts | 231° |
| 2026-04-20 19:47 | 54.09973 | -2.24639 | 16288 ft | 364 kts | 231° |
| 2026-04-20 19:48 | 54.08403 | -2.28024 | 15818 ft | 363 kts | 231° |
| 2026-04-20 19:48 | 54.06851 | -2.31392 | 15362 ft | 361 kts | 231° |
| 2026-04-20 19:48 | 54.05304 | -2.34753 | 14893 ft | 360 kts | 231° |
| 2026-04-20 19:48 | 54.03775 | -2.38076 | 14434 ft | 355 kts | 230° |
| 2026-04-20 19:49 | 54.02037 | -2.40987 | 13932 ft | 348 kts | 211° |
| 2026-04-20 19:49 | 53.99870 | -2.42473 | 13518 ft | 327 kts | 190° |
| 2026-04-20 19:49 | 53.97664 | -2.42732 | 13090 ft | 310 kts | 173° |
| 2026-04-20 19:49 | 53.95570 | -2.42293 | 12716 ft | 299 kts | 169° |
| 2026-04-20 19:50 | 53.93523 | -2.41751 | 12333 ft | 298 kts | 168° |
| 2026-04-20 19:50 | 53.91505 | -2.41197 | 11944 ft | 297 kts | 169° |
| 2026-04-20 19:50 | 53.89442 | -2.40640 | 11559 ft | 296 kts | 168° |
| 2026-04-20 19:50 | 53.87444 | -2.40112 | 11190 ft | 294 kts | 169° |
| 2026-04-20 19:51 | 53.85432 | -2.39592 | 10993 ft | 288 kts | 169° |
| 2026-04-20 19:51 | 53.83482 | -2.39095 | 11020 ft | 280 kts | 169° |
| 2026-04-20 19:51 | 53.81559 | -2.38605 | 11034 ft | 283 kts | 169° |
| 2026-04-20 19:51 | 53.79569 | -2.38101 | 11354 ft | 291 kts | 170° |
| 2026-04-20 19:52 | 53.77550 | -2.37593 | 11334 ft | 294 kts | 169° |
| 2026-04-20 19:52 | 53.75527 | -2.37085 | 11343 ft | 294 kts | 169° |
| 2026-04-20 19:52 | 53.74166 | -2.36744 | 11349 ft | 293 kts | 169° |
| 2026-04-20 19:52 | 53.72156 | -2.36241 | 11350 ft | 289 kts | 169° |
| 2026-04-20 19:53 | 53.70203 | -2.35754 | 11285 ft | 279 kts | 169° |
| 2026-04-20 19:53 | 53.68322 | -2.35286 | 11216 ft | 268 kts | 169° |
| 2026-04-20 19:53 | 53.66502 | -2.34859 | 11091 ft | 260 kts | 175° |
| 2026-04-20 19:53 | 53.64729 | -2.35324 | 10791 ft | 263 kts | 202° |
| 2026-04-20 19:54 | 53.63302 | -2.37166 | 10535 ft | 263 kts | 232° |
| 2026-04-20 19:54 | 53.62282 | -2.39754 | 10358 ft | 261 kts | 239° |
| 2026-04-20 19:54 | 53.61353 | -2.42345 | 10158 ft | 262 kts | 239° |
| 2026-04-20 19:54 | 53.60416 | -2.44989 | 9936 ft | 264 kts | 240° |
| 2026-04-20 19:55 | 53.59460 | -2.47692 | 9726 ft | 265 kts | 239° |
| 2026-04-20 19:55 | 53.58533 | -2.50320 | 9502 ft | 264 kts | 239° |
| 2026-04-20 19:55 | 53.57609 | -2.52933 | 9379 ft | 257 kts | 240° |
| 2026-04-20 19:55 | 53.56700 | -2.55519 | 9345 ft | 257 kts | 240° |
| 2026-04-20 19:56 | 53.55790 | -2.58115 | 9345 ft | 258 kts | 240° |
| 2026-04-20 19:56 | 53.54818 | -2.60656 | 9333 ft | 258 kts | 227° |
| 2026-04-20 19:56 | 53.53358 | -2.62289 | 9305 ft | 253 kts | 197° |
| 2026-04-20 19:56 | 53.51612 | -2.62727 | 9094 ft | 256 kts | 182° |
| 2026-04-20 19:57 | 53.49832 | -2.62829 | 8828 ft | 255 kts | 180° |
| 2026-04-20 19:57 | 53.48068 | -2.62883 | 8558 ft | 252 kts | 180° |
| 2026-04-20 19:57 | 53.46326 | -2.62927 | 8372 ft | 247 kts | 180° |
| 2026-04-20 19:57 | 53.44626 | -2.62971 | 8231 ft | 242 kts | 180° |
| 2026-04-20 19:58 | 53.42946 | -2.63011 | 8055 ft | 242 kts | 180° |
| 2026-04-20 19:58 | 53.41255 | -2.63049 | 7853 ft | 244 kts | 180° |
| 2026-04-20 19:58 | 53.39552 | -2.63090 | 7656 ft | 245 kts | 180° |
| 2026-04-20 19:58 | 53.37842 | -2.63120 | 7432 ft | 247 kts | 179° |
| 2026-04-20 19:59 | 53.36134 | -2.63138 | 7179 ft | 244 kts | 180° |
| 2026-04-20 19:59 | 53.34438 | -2.63161 | 6940 ft | 242 kts | 180° |
| 2026-04-20 19:59 | 53.32779 | -2.63178 | 6677 ft | 236 kts | 180° |
| 2026-04-20 19:59 | 53.31141 | -2.63189 | 6303 ft | 234 kts | 180° |
| 2026-04-20 20:00 | 53.29525 | -2.63206 | 5931 ft | 232 kts | 180° |
| 2026-04-20 20:00 | 53.27919 | -2.63238 | 5593 ft | 229 kts | 179° |
| 2026-04-20 20:00 | 53.26343 | -2.63293 | 5203 ft | 226 kts | 180° |
| 2026-04-20 20:00 | 53.24768 | -2.63356 | 4798 ft | 226 kts | 179° |
| 2026-04-20 20:01 | 53.23206 | -2.63446 | 4583 ft | 222 kts | 179° |
| 2026-04-20 20:01 | 53.21693 | -2.63202 | 4259 ft | 219 kts | 156° |
| 2026-04-20 20:01 | 53.20497 | -2.61669 | 3861 ft | 221 kts | 122° |
| 2026-04-20 20:01 | 53.20047 | -2.59287 | 3610 ft | 217 kts | 90° |
| 2026-04-20 20:02 | 53.20567 | -2.56964 | 3346 ft | 220 kts | 51° |
| 2026-04-20 20:02 | 53.21669 | -2.55207 | 3125 ft | 216 kts | 48° |
| 2026-04-20 20:02 | 53.22652 | -2.53419 | 3028 ft | 200 kts | 52° |
| 2026-04-20 20:02 | 53.23537 | -2.51770 | 2997 ft | 181 kts | 51° |
| 2026-04-20 20:03 | 53.24349 | -2.50231 | 2997 ft | 176 kts | 52° |
| 2026-04-20 20:03 | 53.25121 | -2.48676 | 2989 ft | 169 kts | 53° |
| 2026-04-20 20:03 | 53.25824 | -2.47233 | 2978 ft | 153 kts | 54° |
| 2026-04-20 20:03 | 53.26497 | -2.45841 | 2867 ft | 155 kts | 54° |
| 2026-04-20 20:04 | 53.27182 | -2.44420 | 2668 ft | 158 kts | 54° |
| 2026-04-20 20:04 | 53.27874 | -2.42989 | 2442 ft | 157 kts | 55° |
| 2026-04-20 20:04 | 53.28553 | -2.41585 | 2227 ft | 154 kts | 54° |
| 2026-04-20 20:04 | 53.29218 | -2.40208 | 2021 ft | 151 kts | 55° |
| 2026-04-20 20:05 | 53.29869 | -2.38860 | 1826 ft | 148 kts | 55° |
| 2026-04-20 20:05 | 53.30526 | -2.37504 | 1606 ft | 152 kts | 54° |
| 2026-04-20 20:05 | 53.31195 | -2.36120 | 1389 ft | 153 kts | 55° |
| 2026-04-20 20:05 | 53.31846 | -2.34775 | 1200 ft | 141 kts | 54° |
| 2026-04-20 20:06 | 53.32436 | -2.33558 | 965 ft | 129 kts | 53° |
| 2026-04-20 20:06 | 53.32993 | -2.32405 | 803 ft | 127 kts | 53° |
| 2026-04-20 20:06 | 53.33544 | -2.31266 | 646 ft | 127 kts | 53° |
| 2026-04-20 20:06 | 53.34117 | -2.30088 | 478 ft | 132 kts | 52° |
| 2026-04-20 20:07 | 53.34699 | -2.28899 | 295 ft | 131 kts | 52° |
| 2026-04-20 20:07 | 53.35233 | -2.27788 | 237 ft | 102 kts | 51° |
| 2026-04-20 20:07 | 53.35569 | -2.27093 | 253 ft | 55 kts | 51° |
| 2026-04-20 20:07 | 53.35722 | -2.26779 | 267 ft | 23 kts | 50° |
| 2026-04-20 20:08 | 53.35813 | -2.26678 | 268 ft | 13 kts | 349° |
| 2026-04-20 20:08 | 53.35898 | -2.26705 | 259 ft | 8 kts | 344° |
| 2026-04-20 20:08 | 53.35916 | -2.26774 | 255 ft | 6 kts | 266° |
| 2026-04-20 20:08 | 53.35896 | -2.26844 | 255 ft | 7 kts | 239° |
| 2026-04-20 20:09 | 53.35871 | -2.26900 | 255 ft | 3 kts | 231° |
| 2026-04-20 20:09 | 53.35869 | -2.26904 | 255 ft | 0 kts | 230° |
| 2026-04-20 20:11 | 53.35855 | -2.26934 | 255 ft | 7 kts | 237° |
| 2026-04-20 20:11 | 53.35814 | -2.27044 | 254 ft | 14 kts | 238° |
| 2026-04-20 20:11 | 53.35768 | -2.27148 | 254 ft | 9 kts | 230° |
| 2026-04-20 20:11 | 53.35726 | -2.27235 | 254 ft | 10 kts | 231° |
| 2026-04-20 20:12 | 53.35680 | -2.27329 | 254 ft | 11 kts | 231° |
| 2026-04-20 20:12 | 53.35621 | -2.27452 | 245 ft | 10 kts | 232° |
| 2026-04-20 20:12 | 53.35641 | -2.27550 | 245 ft | 10 kts | 320° |
| 2026-04-20 20:13 | 53.35745 | -2.27650 | 248 ft | 8 kts | 339° |
| 2026-04-20 20:13 | 53.35792 | -2.27694 | 250 ft | 8 kts | 312° |
| 2026-04-20 20:13 | 53.35838 | -2.27730 | 252 ft | 8 kts | 2° |
| 2026-04-20 20:13 | 53.35890 | -2.27728 | 254 ft | 8 kts | 1° |
| 2026-04-20 20:14 | 53.35958 | -2.27734 | 254 ft | 13 kts | 346° |
| 2026-04-20 20:14 | 53.36038 | -2.27819 | 254 ft | 13 kts | 322° |
| 2026-04-20 20:14 | 53.36108 | -2.27911 | 254 ft | 13 kts | 321° |
| 2026-04-20 20:14 | 53.36176 | -2.28001 | 254 ft | 12 kts | 319° |
| 2026-04-20 20:15 | 53.36242 | -2.28080 | 254 ft | 12 kts | 0° |
| 2026-04-20 20:15 | 53.36321 | -2.28043 | 254 ft | 12 kts | 29° |
| 2026-04-20 20:15 | 53.36381 | -2.27954 | 254 ft | 12 kts | 44° |
| 2026-04-20 20:15 | 53.36441 | -2.27950 | 254 ft | 8 kts | 316° |
| 2026-04-20 20:16 | 53.36472 | -2.27961 | 254 ft | 5 kts | 27° |
| 2026-04-20 20:16 | 53.36493 | -2.27933 | 254 ft | 2 kts | 44° |
| 2026-04-20 20:16 | 53.36495 | -2.27929 | 254 ft | 0 kts | 44° |
| 2026-04-20 20:17 | 53.36496 | -2.27928 | 254 ft | 0 kts | 44° |
| 2026-04-20 20:17 | 53.36500 | -2.27921 | 254 ft | 1 kts | 44° |
| 2026-04-20 20:18 | 53.36504 | -2.27915 | 254 ft | 0 kts | 44° |
| 2026-04-20 20:18 | 53.36506 | -2.27912 | 254 ft | 0 kts | 44° |
| 2026-04-20 20:19 | 53.36508 | -2.27909 | 254 ft | 2 kts | 44° |
| 2026-04-20 20:19 | 53.36521 | -2.27887 | 254 ft | 2 kts | 45° |
| 2026-04-20 20:19 | 53.36523 | -2.27883 | 254 ft | 0 kts | 45° |